sensor_id;sensor_type;location;lat;lon;timestamp;P1;durP1;ratioP1;P2;durP2;ratioP2
9737;SDS011;4908;47.446;13.900;2023-10-19T00:00:53;22.90;;;10.87;;
9737;SDS011;4908;47.446;13.900;2023-10-19T00:03:21;8.80;;;5.30;;
9737;SDS011;4908;47.446;13.900;2023-10-19T00:05:50;5.57;;;5.00;;
9737;SDS011;4908;47.446;13.900;2023-10-19T00:08:16;5.33;;;4.33;;
9737;SDS011;4908;47.446;13.900;2023-10-19T00:10:45;5.67;;;4.50;;
9737;SDS011;4908;47.446;13.900;2023-10-19T00:13:15;5.13;;;4.53;;
9737;SDS011;4908;47.446;13.900;2023-10-19T00:15:44;4.53;;;3.90;;
9737;SDS011;4908;47.446;13.900;2023-10-19T00:18:15;4.87;;;4.40;;
9737;SDS011;4908;47.446;13.900;2023-10-19T00:20:48;4.70;;;4.30;;
9737;SDS011;4908;47.446;13.900;2023-10-19T00:23:25;5.67;;;4.30;;
9737;SDS011;4908;47.446;13.900;2023-10-19T00:25:54;4.57;;;4.17;;
9737;SDS011;4908;47.446;13.900;2023-10-19T00:28:22;3.83;;;3.57;;
9737;SDS011;4908;47.446;13.900;2023-10-19T00:30:52;3.87;;;3.57;;
9737;SDS011;4908;47.446;13.900;2023-10-19T00:33:26;3.80;;;3.50;;
9737;SDS011;4908;47.446;13.900;2023-10-19T00:35:55;3.60;;;3.40;;
9737;SDS011;4908;47.446;13.900;2023-10-19T00:38:25;3.70;;;3.40;;
9737;SDS011;4908;47.446;13.900;2023-10-19T00:41:16;4.50;;;2.80;;
9737;SDS011;4908;47.446;13.900;2023-10-19T00:43:47;3.23;;;2.97;;
9737;SDS011;4908;47.446;13.900;2023-10-19T00:46:16;3.13;;;2.93;;
9737;SDS011;4908;47.446;13.900;2023-10-19T00:48:49;4.00;;;3.70;;
9737;SDS011;4908;47.446;13.900;2023-10-19T00:51:20;3.60;;;3.30;;
9737;SDS011;4908;47.446;13.900;2023-10-19T00:54:07;4.30;;;3.90;;
9737;SDS011;4908;47.446;13.900;2023-10-19T00:56:39;4.37;;;3.93;;
9737;SDS011;4908;47.446;13.900;2023-10-19T00:59:13;5.03;;;4.50;;
9737;SDS011;4908;47.446;13.900;2023-10-19T01:01:46;6.40;;;4.57;;
9737;SDS011;4908;47.446;13.900;2023-10-19T01:04:16;4.47;;;3.90;;
9737;SDS011;4908;47.446;13.900;2023-10-19T01:06:48;3.43;;;3.20;;
9737;SDS011;4908;47.446;13.900;2023-10-19T01:09:26;3.73;;;3.43;;
9737;SDS011;4908;47.446;13.900;2023-10-19T01:11:53;3.93;;;3.60;;
9737;SDS011;4908;47.446;13.900;2023-10-19T01:14:26;3.30;;;3.10;;
9737;SDS011;4908;47.446;13.900;2023-10-19T01:16:55;4.13;;;3.23;;
9737;SDS011;4908;47.446;13.900;2023-10-19T01:19:24;3.77;;;3.40;;
9737;SDS011;4908;47.446;13.900;2023-10-19T01:21:52;3.87;;;3.33;;
9737;SDS011;4908;47.446;13.900;2023-10-19T01:24:29;3.27;;;3.07;;
9737;SDS011;4908;47.446;13.900;2023-10-19T01:27:05;2.80;;;2.70;;
9737;SDS011;4908;47.446;13.900;2023-10-19T01:29:36;3.13;;;2.90;;
9737;SDS011;4908;47.446;13.900;2023-10-19T01:32:04;3.90;;;3.60;;
9737;SDS011;4908;47.446;13.900;2023-10-19T01:34:33;3.00;;;2.80;;
9737;SDS011;4908;47.446;13.900;2023-10-19T01:37:02;3.07;;;2.87;;
9737;SDS011;4908;47.446;13.900;2023-10-19T01:39:31;2.97;;;2.77;;
9737;SDS011;4908;47.446;13.900;2023-10-19T01:42:00;3.30;;;3.10;;
9737;SDS011;4908;47.446;13.900;2023-10-19T01:44:27;3.30;;;3.10;;
9737;SDS011;4908;47.446;13.900;2023-10-19T01:46:54;3.83;;;3.00;;
9737;SDS011;4908;47.446;13.900;2023-10-19T01:49:21;3.00;;;2.80;;
9737;SDS011;4908;47.446;13.900;2023-10-19T01:51:53;2.70;;;2.60;;
9737;SDS011;4908;47.446;13.900;2023-10-19T01:54:19;3.10;;;2.90;;
9737;SDS011;4908;47.446;13.900;2023-10-19T01:56:52;3.37;;;3.13;;
9737;SDS011;4908;47.446;13.900;2023-10-19T01:59:20;3.40;;;3.20;;
9737;SDS011;4908;47.446;13.900;2023-10-19T02:01:52;3.60;;;3.30;;
9737;SDS011;4908;47.446;13.900;2023-10-19T02:04:20;3.77;;;3.27;;
9737;SDS011;4908;47.446;13.900;2023-10-19T02:06:48;3.23;;;3.00;;
9737;SDS011;4908;47.446;13.900;2023-10-19T02:09:15;2.93;;;2.73;;
9737;SDS011;4908;47.446;13.900;2023-10-19T02:11:49;3.40;;;3.10;;
9737;SDS011;4908;47.446;13.900;2023-10-19T02:14:19;2.93;;;2.80;;
9737;SDS011;4908;47.446;13.900;2023-10-19T02:16:47;4.00;;;3.70;;
9737;SDS011;4908;47.446;13.900;2023-10-19T02:19:16;3.60;;;3.40;;
9737;SDS011;4908;47.446;13.900;2023-10-19T02:21:45;3.33;;;3.10;;
9737;SDS011;4908;47.446;13.900;2023-10-19T02:24:13;3.17;;;2.97;;
9737;SDS011;4908;47.446;13.900;2023-10-19T02:26:43;3.47;;;2.87;;
9737;SDS011;4908;47.446;13.900;2023-10-19T02:29:10;3.30;;;3.10;;
9737;SDS011;4908;47.446;13.900;2023-10-19T02:31:39;2.93;;;2.83;;
9737;SDS011;4908;47.446;13.900;2023-10-19T02:34:06;3.17;;;2.97;;
9737;SDS011;4908;47.446;13.900;2023-10-19T02:36:35;3.70;;;3.50;;
9737;SDS011;4908;47.446;13.900;2023-10-19T02:39:02;3.43;;;3.23;;
9737;SDS011;4908;47.446;13.900;2023-10-19T02:41:33;3.20;;;3.00;;
9737;SDS011;4908;47.446;13.900;2023-10-19T02:44:00;3.17;;;2.97;;
9737;SDS011;4908;47.446;13.900;2023-10-19T02:46:33;3.00;;;2.80;;
9737;SDS011;4908;47.446;13.900;2023-10-19T02:49:01;3.00;;;2.80;;
9737;SDS011;4908;47.446;13.900;2023-10-19T02:51:29;3.00;;;2.80;;
9737;SDS011;4908;47.446;13.900;2023-10-19T02:53:56;2.93;;;2.70;;
9737;SDS011;4908;47.446;13.900;2023-10-19T02:56:25;3.03;;;2.80;;
9737;SDS011;4908;47.446;13.900;2023-10-19T02:58:52;3.33;;;3.13;;
9737;SDS011;4908;47.446;13.900;2023-10-19T03:01:19;3.03;;;2.83;;
9737;SDS011;4908;47.446;13.900;2023-10-19T03:03:50;3.10;;;2.90;;
9737;SDS011;4908;47.446;13.900;2023-10-19T03:06:20;3.47;;;3.20;;
9737;SDS011;4908;47.446;13.900;2023-10-19T03:08:47;4.70;;;3.20;;
9737;SDS011;4908;47.446;13.900;2023-10-19T03:11:17;2.70;;;2.60;;
9737;SDS011;4908;47.446;13.900;2023-10-19T03:13:44;3.23;;;3.03;;
9737;SDS011;4908;47.446;13.900;2023-10-19T03:16:15;3.00;;;2.70;;
9737;SDS011;4908;47.446;13.900;2023-10-19T03:18:42;3.37;;;3.17;;
9737;SDS011;4908;47.446;13.900;2023-10-19T03:21:09;3.27;;;3.03;;
9737;SDS011;4908;47.446;13.900;2023-10-19T03:23:37;3.60;;;3.30;;
9737;SDS011;4908;47.446;13.900;2023-10-19T03:26:06;4.17;;;3.73;;
9737;SDS011;4908;47.446;13.900;2023-10-19T03:28:49;3.57;;;3.37;;
9737;SDS011;4908;47.446;13.900;2023-10-19T03:31:20;2.83;;;2.73;;
9737;SDS011;4908;47.446;13.900;2023-10-19T03:33:48;10.90;;;10.00;;
9737;SDS011;4908;47.446;13.900;2023-10-19T03:36:19;7.87;;;7.27;;
9737;SDS011;4908;47.446;13.900;2023-10-19T03:38:49;8.03;;;7.43;;
9737;SDS011;4908;47.446;13.900;2023-10-19T03:41:18;6.43;;;5.93;;
9737;SDS011;4908;47.446;13.900;2023-10-19T03:43:47;5.13;;;4.67;;
9737;SDS011;4908;47.446;13.900;2023-10-19T03:46:17;4.40;;;4.10;;
9737;SDS011;4908;47.446;13.900;2023-10-19T03:48:54;3.93;;;3.43;;
9737;SDS011;4908;47.446;13.900;2023-10-19T03:51:24;3.90;;;3.53;;
9737;SDS011;4908;47.446;13.900;2023-10-19T03:53:54;13.93;;;4.83;;
9737;SDS011;4908;47.446;13.900;2023-10-19T03:56:26;6.00;;;4.07;;
9737;SDS011;4908;47.446;13.900;2023-10-19T03:58:58;4.63;;;3.53;;
9737;SDS011;4908;47.446;13.900;2023-10-19T04:01:25;7.30;;;3.90;;
9737;SDS011;4908;47.446;13.900;2023-10-19T04:03:53;3.97;;;3.67;;
9737;SDS011;4908;47.446;13.900;2023-10-19T04:06:20;4.63;;;3.67;;
9737;SDS011;4908;47.446;13.900;2023-10-19T04:08:47;5.97;;;3.70;;
9737;SDS011;4908;47.446;13.900;2023-10-19T04:11:18;7.23;;;3.50;;
9737;SDS011;4908;47.446;13.900;2023-10-19T04:13:49;3.77;;;3.43;;
9737;SDS011;4908;47.446;13.900;2023-10-19T04:16:18;4.27;;;3.77;;
9737;SDS011;4908;47.446;13.900;2023-10-19T04:18:46;4.77;;;3.70;;
9737;SDS011;4908;47.446;13.900;2023-10-19T04:21:15;3.90;;;3.60;;
9737;SDS011;4908;47.446;13.900;2023-10-19T04:23:42;6.60;;;5.27;;
9737;SDS011;4908;47.446;13.900;2023-10-19T04:26:11;63.40;;;35.97;;
9737;SDS011;4908;47.446;13.900;2023-10-19T04:28:41;38.47;;;26.63;;
9737;SDS011;4908;47.446;13.900;2023-10-19T04:31:14;34.90;;;22.57;;
9737;SDS011;4908;47.446;13.900;2023-10-19T04:33:42;30.53;;;20.57;;
9737;SDS011;4908;47.446;13.900;2023-10-19T04:36:11;29.67;;;19.37;;
9737;SDS011;4908;47.446;13.900;2023-10-19T04:38:39;16.03;;;11.40;;
9737;SDS011;4908;47.446;13.900;2023-10-19T04:41:06;13.70;;;9.00;;
9737;SDS011;4908;47.446;13.900;2023-10-19T04:43:34;6.27;;;5.67;;
9737;SDS011;4908;47.446;13.900;2023-10-19T04:46:07;10.90;;;5.97;;
9737;SDS011;4908;47.446;13.900;2023-10-19T04:48:37;15.63;;;7.67;;
9737;SDS011;4908;47.446;13.900;2023-10-19T04:51:07;5.60;;;5.10;;
9737;SDS011;4908;47.446;13.900;2023-10-19T04:53:35;4.70;;;4.13;;
9737;SDS011;4908;47.446;13.900;2023-10-19T04:56:03;20.97;;;12.57;;
9737;SDS011;4908;47.446;13.900;2023-10-19T04:58:30;19.30;;;12.60;;
9737;SDS011;4908;47.446;13.900;2023-10-19T05:00:57;13.90;;;11.30;;
9737;SDS011;4908;47.446;13.900;2023-10-19T05:03:26;9.73;;;7.13;;
9737;SDS011;4908;47.446;13.900;2023-10-19T05:05:54;16.43;;;10.73;;
9737;SDS011;4908;47.446;13.900;2023-10-19T05:08:21;17.00;;;11.40;;
9737;SDS011;4908;47.446;13.900;2023-10-19T05:10:51;14.00;;;10.50;;
9737;SDS011;4908;47.446;13.900;2023-10-19T05:13:19;11.73;;;9.33;;
9737;SDS011;4908;47.446;13.900;2023-10-19T05:15:46;10.73;;;6.03;;
9737;SDS011;4908;47.446;13.900;2023-10-19T05:18:13;9.37;;;4.53;;
9737;SDS011;4908;47.446;13.900;2023-10-19T05:20:42;11.20;;;5.33;;
9737;SDS011;4908;47.446;13.900;2023-10-19T05:23:09;12.53;;;11.37;;
9737;SDS011;4908;47.446;13.900;2023-10-19T05:25:38;6.37;;;5.87;;
9737;SDS011;4908;47.446;13.900;2023-10-19T05:28:05;4.73;;;4.23;;
9737;SDS011;4908;47.446;13.900;2023-10-19T05:30:33;5.87;;;5.40;;
9737;SDS011;4908;47.446;13.900;2023-10-19T05:33:02;6.50;;;6.00;;
9737;SDS011;4908;47.446;13.900;2023-10-19T05:35:29;5.70;;;5.23;;
9737;SDS011;4908;47.446;13.900;2023-10-19T05:38:01;9.70;;;5.33;;
9737;SDS011;4908;47.446;13.900;2023-10-19T05:40:29;6.70;;;4.90;;
9737;SDS011;4908;47.446;13.900;2023-10-19T05:42:56;7.53;;;4.83;;
9737;SDS011;4908;47.446;13.900;2023-10-19T05:45:26;6.63;;;6.03;;
9737;SDS011;4908;47.446;13.900;2023-10-19T05:47:54;15.03;;;8.33;;
9737;SDS011;4908;47.446;13.900;2023-10-19T05:50:22;9.80;;;8.17;;
9737;SDS011;4908;47.446;13.900;2023-10-19T05:52:49;12.50;;;9.87;;
9737;SDS011;4908;47.446;13.900;2023-10-19T05:55:18;15.53;;;12.63;;
9737;SDS011;4908;47.446;13.900;2023-10-19T05:57:47;11.57;;;10.30;;
9737;SDS011;4908;47.446;13.900;2023-10-19T06:00:14;8.33;;;7.53;;
9737;SDS011;4908;47.446;13.900;2023-10-19T06:02:44;12.50;;;9.00;;
9737;SDS011;4908;47.446;13.900;2023-10-19T06:05:12;8.90;;;8.00;;
9737;SDS011;4908;47.446;13.900;2023-10-19T06:07:40;10.27;;;6.93;;
9737;SDS011;4908;47.446;13.900;2023-10-19T06:10:08;8.73;;;6.70;;
9737;SDS011;4908;47.446;13.900;2023-10-19T06:12:42;7.90;;;6.77;;
9737;SDS011;4908;47.446;13.900;2023-10-19T06:15:10;8.37;;;7.23;;
9737;SDS011;4908;47.446;13.900;2023-10-19T06:17:38;9.37;;;6.37;;
9737;SDS011;4908;47.446;13.900;2023-10-19T06:20:06;14.20;;;6.60;;
9737;SDS011;4908;47.446;13.900;2023-10-19T06:22:45;9.60;;;6.33;;
9737;SDS011;4908;47.446;13.900;2023-10-19T06:25:15;12.17;;;6.40;;
9737;SDS011;4908;47.446;13.900;2023-10-19T06:27:45;10.77;;;7.17;;
9737;SDS011;4908;47.446;13.900;2023-10-19T06:30:13;9.77;;;6.60;;
9737;SDS011;4908;47.446;13.900;2023-10-19T06:32:45;7.97;;;7.17;;
9737;SDS011;4908;47.446;13.900;2023-10-19T06:35:13;8.03;;;7.23;;
9737;SDS011;4908;47.446;13.900;2023-10-19T06:37:40;7.13;;;6.53;;
9737;SDS011;4908;47.446;13.900;2023-10-19T06:40:08;6.93;;;6.30;;
9737;SDS011;4908;47.446;13.900;2023-10-19T06:42:37;11.03;;;8.17;;
9737;SDS011;4908;47.446;13.900;2023-10-19T06:45:06;13.60;;;8.27;;
9737;SDS011;4908;47.446;13.900;2023-10-19T06:47:35;9.23;;;7.70;;
9737;SDS011;4908;47.446;13.900;2023-10-19T06:50:04;9.73;;;8.07;;
9737;SDS011;4908;47.446;13.900;2023-10-19T06:52:35;9.13;;;7.13;;
9737;SDS011;4908;47.446;13.900;2023-10-19T06:55:02;10.77;;;7.50;;
9737;SDS011;4908;47.446;13.900;2023-10-19T06:57:30;9.60;;;8.60;;
9737;SDS011;4908;47.446;13.900;2023-10-19T06:59:58;13.43;;;7.87;;
9737;SDS011;4908;47.446;13.900;2023-10-19T07:02:34;10.00;;;7.87;;
9737;SDS011;4908;47.446;13.900;2023-10-19T07:05:01;9.43;;;7.47;;
9737;SDS011;4908;47.446;13.900;2023-10-19T07:07:28;7.63;;;6.40;;
9737;SDS011;4908;47.446;13.900;2023-10-19T07:09:56;10.53;;;6.20;;
9737;SDS011;4908;47.446;13.900;2023-10-19T07:12:23;8.47;;;6.37;;
9737;SDS011;4908;47.446;13.900;2023-10-19T07:14:50;6.27;;;5.30;;
9737;SDS011;4908;47.446;13.900;2023-10-19T07:17:17;6.23;;;5.50;;
9737;SDS011;4908;47.446;13.900;2023-10-19T07:19:45;7.87;;;5.57;;
9737;SDS011;4908;47.446;13.900;2023-10-19T07:22:14;6.27;;;5.30;;
9737;SDS011;4908;47.446;13.900;2023-10-19T07:24:42;8.57;;;5.40;;
9737;SDS011;4908;47.446;13.900;2023-10-19T07:27:10;7.87;;;5.87;;
9737;SDS011;4908;47.446;13.900;2023-10-19T07:29:43;6.47;;;5.93;;
9737;SDS011;4908;47.446;13.900;2023-10-19T07:32:10;6.27;;;5.67;;
9737;SDS011;4908;47.446;13.900;2023-10-19T07:34:39;4.80;;;4.27;;
9737;SDS011;4908;47.446;13.900;2023-10-19T07:37:07;4.87;;;4.47;;
9737;SDS011;4908;47.446;13.900;2023-10-19T07:39:40;4.90;;;4.40;;
9737;SDS011;4908;47.446;13.900;2023-10-19T07:42:10;5.80;;;5.27;;
9737;SDS011;4908;47.446;13.900;2023-10-19T07:44:37;5.53;;;5.03;;
9737;SDS011;4908;47.446;13.900;2023-10-19T07:47:05;6.30;;;4.57;;
9737;SDS011;4908;47.446;13.900;2023-10-19T07:49:34;4.40;;;4.00;;
9737;SDS011;4908;47.446;13.900;2023-10-19T07:52:03;3.80;;;3.53;;
9737;SDS011;4908;47.446;13.900;2023-10-19T07:54:33;3.87;;;3.43;;
9737;SDS011;4908;47.446;13.900;2023-10-19T07:57:00;3.93;;;3.53;;
9737;SDS011;4908;47.446;13.900;2023-10-19T07:59:31;2.90;;;2.70;;
9737;SDS011;4908;47.446;13.900;2023-10-19T08:01:58;3.23;;;3.03;;
9737;SDS011;4908;47.446;13.900;2023-10-19T08:04:27;3.50;;;3.27;;
9737;SDS011;4908;47.446;13.900;2023-10-19T08:06:54;3.43;;;3.23;;
9737;SDS011;4908;47.446;13.900;2023-10-19T08:09:21;3.13;;;2.93;;
9737;SDS011;4908;47.446;13.900;2023-10-19T08:11:50;3.93;;;2.97;;
9737;SDS011;4908;47.446;13.900;2023-10-19T08:14:20;3.13;;;2.93;;
9737;SDS011;4908;47.446;13.900;2023-10-19T08:16:49;3.40;;;2.90;;
9737;SDS011;4908;47.446;13.900;2023-10-19T08:19:17;4.80;;;3.67;;
9737;SDS011;4908;47.446;13.900;2023-10-19T08:21:44;4.37;;;3.20;;
9737;SDS011;4908;47.446;13.900;2023-10-19T08:24:11;4.60;;;3.50;;
9737;SDS011;4908;47.446;13.900;2023-10-19T08:26:43;3.53;;;3.23;;
9737;SDS011;4908;47.446;13.900;2023-10-19T08:29:12;3.63;;;3.27;;
9737;SDS011;4908;47.446;13.900;2023-10-19T08:31:40;4.47;;;3.30;;
9737;SDS011;4908;47.446;13.900;2023-10-19T08:34:07;3.23;;;3.03;;
9737;SDS011;4908;47.446;13.900;2023-10-19T08:36:36;3.40;;;3.10;;
9737;SDS011;4908;47.446;13.900;2023-10-19T08:39:04;3.30;;;3.07;;
9737;SDS011;4908;47.446;13.900;2023-10-19T08:41:32;3.47;;;3.27;;
9737;SDS011;4908;47.446;13.900;2023-10-19T08:44:02;4.70;;;3.37;;
9737;SDS011;4908;47.446;13.900;2023-10-19T08:46:37;2.93;;;2.73;;
9737;SDS011;4908;47.446;13.900;2023-10-19T08:49:08;2.93;;;2.80;;
9737;SDS011;4908;47.446;13.900;2023-10-19T08:51:37;3.10;;;2.60;;
9737;SDS011;4908;47.446;13.900;2023-10-19T08:54:05;3.03;;;2.83;;
9737;SDS011;4908;47.446;13.900;2023-10-19T08:56:32;3.73;;;3.30;;
9737;SDS011;4908;47.446;13.900;2023-10-19T08:59:00;2.93;;;2.73;;
9737;SDS011;4908;47.446;13.900;2023-10-19T09:01:28;2.97;;;2.77;;
9737;SDS011;4908;47.446;13.900;2023-10-19T09:03:58;3.53;;;3.33;;
9737;SDS011;4908;47.446;13.900;2023-10-19T09:06:26;3.70;;;3.30;;
9737;SDS011;4908;47.446;13.900;2023-10-19T09:08:54;3.40;;;3.10;;
9737;SDS011;4908;47.446;13.900;2023-10-19T09:11:23;3.53;;;3.13;;
9737;SDS011;4908;47.446;13.900;2023-10-19T09:13:51;3.73;;;3.43;;
9737;SDS011;4908;47.446;13.900;2023-10-19T09:16:19;3.60;;;3.30;;
9737;SDS011;4908;47.446;13.900;2023-10-19T09:18:48;4.07;;;3.00;;
9737;SDS011;4908;47.446;13.900;2023-10-19T09:21:17;3.03;;;2.83;;
9737;SDS011;4908;47.446;13.900;2023-10-19T09:23:50;4.83;;;4.43;;
9737;SDS011;4908;47.446;13.900;2023-10-19T09:26:17;5.27;;;4.77;;
9737;SDS011;4908;47.446;13.900;2023-10-19T09:28:47;4.40;;;3.87;;
9737;SDS011;4908;47.446;13.900;2023-10-19T09:31:14;5.50;;;4.50;;
9737;SDS011;4908;47.446;13.900;2023-10-19T09:33:43;5.50;;;4.27;;
9737;SDS011;4908;47.446;13.900;2023-10-19T09:36:11;3.83;;;3.60;;
9737;SDS011;4908;47.446;13.900;2023-10-19T09:38:42;5.53;;;4.20;;
9737;SDS011;4908;47.446;13.900;2023-10-19T09:41:12;9.47;;;4.57;;
9737;SDS011;4908;47.446;13.900;2023-10-19T09:43:41;8.63;;;4.60;;
9737;SDS011;4908;47.446;13.900;2023-10-19T09:46:10;4.53;;;3.90;;
9737;SDS011;4908;47.446;13.900;2023-10-19T09:48:39;4.03;;;3.73;;
9737;SDS011;4908;47.446;13.900;2023-10-19T09:51:08;4.23;;;3.10;;
9737;SDS011;4908;47.446;13.900;2023-10-19T09:53:36;5.70;;;3.37;;
9737;SDS011;4908;47.446;13.900;2023-10-19T09:56:10;7.87;;;3.90;;
9737;SDS011;4908;47.446;13.900;2023-10-19T09:58:40;3.40;;;3.20;;
9737;SDS011;4908;47.446;13.900;2023-10-19T10:01:11;3.93;;;3.50;;
9737;SDS011;4908;47.446;13.900;2023-10-19T10:03:42;3.70;;;3.40;;
9737;SDS011;4908;47.446;13.900;2023-10-19T10:06:10;4.13;;;3.70;;
9737;SDS011;4908;47.446;13.900;2023-10-19T10:08:40;6.67;;;3.30;;
9737;SDS011;4908;47.446;13.900;2023-10-19T10:11:16;5.33;;;3.47;;
9737;SDS011;4908;47.446;13.900;2023-10-19T10:13:44;4.50;;;3.27;;
9737;SDS011;4908;47.446;13.900;2023-10-19T10:16:16;4.27;;;2.93;;
9737;SDS011;4908;47.446;13.900;2023-10-19T10:18:44;8.63;;;3.67;;
9737;SDS011;4908;47.446;13.900;2023-10-19T10:21:16;6.53;;;2.97;;
9737;SDS011;4908;47.446;13.900;2023-10-19T10:23:46;2.87;;;2.43;;
9737;SDS011;4908;47.446;13.900;2023-10-19T10:26:16;2.90;;;2.70;;
9737;SDS011;4908;47.446;13.900;2023-10-19T10:28:47;3.70;;;2.77;;
9737;SDS011;4908;47.446;13.900;2023-10-19T10:31:19;4.87;;;2.90;;
9737;SDS011;4908;47.446;13.900;2023-10-19T10:33:48;2.37;;;2.20;;
9737;SDS011;4908;47.446;13.900;2023-10-19T10:36:17;3.07;;;2.00;;
9737;SDS011;4908;47.446;13.900;2023-10-19T10:38:45;2.47;;;2.27;;
9737;SDS011;4908;47.446;13.900;2023-10-19T10:41:20;5.40;;;2.50;;
9737;SDS011;4908;47.446;13.900;2023-10-19T10:43:48;5.53;;;2.67;;
9737;SDS011;4908;47.446;13.900;2023-10-19T10:46:20;4.73;;;2.87;;
9737;SDS011;4908;47.446;13.900;2023-10-19T10:48:48;2.63;;;2.40;;
9737;SDS011;4908;47.446;13.900;2023-10-19T10:51:16;3.07;;;2.70;;
9737;SDS011;4908;47.446;13.900;2023-10-19T10:53:47;3.03;;;2.83;;
9737;SDS011;4908;47.446;13.900;2023-10-19T10:56:15;3.80;;;3.60;;
9737;SDS011;4908;47.446;13.900;2023-10-19T10:58:44;2.80;;;2.70;;
9737;SDS011;4908;47.446;13.900;2023-10-19T11:01:11;2.83;;;2.60;;
9737;SDS011;4908;47.446;13.900;2023-10-19T11:03:39;3.30;;;2.80;;
9737;SDS011;4908;47.446;13.900;2023-10-19T11:06:07;3.10;;;2.80;;
9737;SDS011;4908;47.446;13.900;2023-10-19T11:08:35;4.23;;;2.50;;
9737;SDS011;4908;47.446;13.900;2023-10-19T11:11:03;3.70;;;3.00;;
9737;SDS011;4908;47.446;13.900;2023-10-19T11:13:31;3.23;;;2.80;;
9737;SDS011;4908;47.446;13.900;2023-10-19T11:16:02;5.47;;;2.60;;
9737;SDS011;4908;47.446;13.900;2023-10-19T11:18:35;2.73;;;2.53;;
9737;SDS011;4908;47.446;13.900;2023-10-19T11:21:05;3.17;;;2.90;;
9737;SDS011;4908;47.446;13.900;2023-10-19T11:23:38;3.80;;;2.90;;
9737;SDS011;4908;47.446;13.900;2023-10-19T11:26:09;1.93;;;1.83;;
9737;SDS011;4908;47.446;13.900;2023-10-19T11:28:37;2.30;;;2.10;;
9737;SDS011;4908;47.446;13.900;2023-10-19T11:31:17;2.73;;;2.43;;
9737;SDS011;4908;47.446;13.900;2023-10-19T11:33:45;6.10;;;3.40;;
9737;SDS011;4908;47.446;13.900;2023-10-19T11:36:14;3.30;;;2.73;;
9737;SDS011;4908;47.446;13.900;2023-10-19T11:38:43;4.83;;;3.03;;
9737;SDS011;4908;47.446;13.900;2023-10-19T11:41:11;9.27;;;2.97;;
9737;SDS011;4908;47.446;13.900;2023-10-19T11:43:39;2.47;;;2.27;;
9737;SDS011;4908;47.446;13.900;2023-10-19T11:46:07;2.47;;;2.27;;
9737;SDS011;4908;47.446;13.900;2023-10-19T11:48:39;4.33;;;2.20;;
9737;SDS011;4908;47.446;13.900;2023-10-19T11:51:08;2.30;;;2.10;;
9737;SDS011;4908;47.446;13.900;2023-10-19T11:53:36;2.43;;;2.23;;
9737;SDS011;4908;47.446;13.900;2023-10-19T11:56:05;6.00;;;2.60;;
9737;SDS011;4908;47.446;13.900;2023-10-19T11:58:34;2.53;;;2.30;;
9737;SDS011;4908;47.446;13.900;2023-10-19T12:01:03;2.33;;;2.13;;
9737;SDS011;4908;47.446;13.900;2023-10-19T12:03:33;2.60;;;2.00;;
9737;SDS011;4908;47.446;13.900;2023-10-19T12:06:03;3.13;;;2.47;;
9737;SDS011;4908;47.446;13.900;2023-10-19T12:08:31;3.77;;;2.93;;
9737;SDS011;4908;47.446;13.900;2023-10-19T12:10:58;7.50;;;5.13;;
9737;SDS011;4908;47.446;13.900;2023-10-19T12:13:29;5.37;;;3.30;;
9737;SDS011;4908;47.446;13.900;2023-10-19T12:15:56;4.80;;;2.47;;
9737;SDS011;4908;47.446;13.900;2023-10-19T12:18:23;3.60;;;2.40;;
9737;SDS011;4908;47.446;13.900;2023-10-19T12:20:53;2.92;;;2.58;;
9737;SDS011;4908;47.446;13.900;2023-10-19T12:23:23;2.20;;;2.08;;
9737;SDS011;4908;47.446;13.900;2023-10-19T12:25:50;2.10;;;2.00;;
9737;SDS011;4908;47.446;13.900;2023-10-19T12:28:18;2.25;;;2.00;;
9737;SDS011;4908;47.446;13.900;2023-10-19T12:30:45;1.63;;;1.60;;
9737;SDS011;4908;47.446;13.900;2023-10-19T12:33:13;2.10;;;1.98;;
9737;SDS011;4908;47.446;13.900;2023-10-19T12:35:41;1.77;;;1.67;;
9737;SDS011;4908;47.446;13.900;2023-10-19T12:38:13;2.10;;;1.67;;
9737;SDS011;4908;47.446;13.900;2023-10-19T12:40:46;1.85;;;1.60;;
9737;SDS011;4908;47.446;13.900;2023-10-19T12:43:15;2.50;;;1.80;;
9737;SDS011;4908;47.446;13.900;2023-10-19T12:45:44;1.80;;;1.70;;
9737;SDS011;4908;47.446;13.900;2023-10-19T12:48:15;2.55;;;1.80;;
9737;SDS011;4908;47.446;13.900;2023-10-19T12:50:43;2.90;;;1.55;;
9737;SDS011;4908;47.446;13.900;2023-10-19T12:53:10;1.92;;;1.83;;
9737;SDS011;4908;47.446;13.900;2023-10-19T12:55:37;2.10;;;1.88;;
9737;SDS011;4908;47.446;13.900;2023-10-19T12:58:05;2.67;;;1.70;;
9737;SDS011;4908;47.446;13.900;2023-10-19T13:00:34;1.85;;;1.63;;
9737;SDS011;4908;47.446;13.900;2023-10-19T13:03:10;2.88;;;1.75;;
9737;SDS011;4908;47.446;13.900;2023-10-19T13:05:41;2.20;;;1.50;;
9737;SDS011;4908;47.446;13.900;2023-10-19T13:08:11;1.42;;;1.33;;
9737;SDS011;4908;47.446;13.900;2023-10-19T13:10:40;1.83;;;1.40;;
9737;SDS011;4908;47.446;13.900;2023-10-19T13:13:10;1.58;;;1.40;;
9737;SDS011;4908;47.446;13.900;2023-10-19T13:15:39;2.78;;;1.50;;
9737;SDS011;4908;47.446;13.900;2023-10-19T13:18:07;1.50;;;1.40;;
9737;SDS011;4908;47.446;13.900;2023-10-19T13:20:36;1.80;;;1.70;;
9737;SDS011;4908;47.446;13.900;2023-10-19T13:23:04;2.75;;;1.77;;
9737;SDS011;4908;47.446;13.900;2023-10-19T13:25:33;8.15;;;1.95;;
9737;SDS011;4908;47.446;13.900;2023-10-19T13:28:13;3.55;;;1.80;;
9737;SDS011;4908;47.446;13.900;2023-10-19T13:30:42;3.03;;;1.52;;
9737;SDS011;4908;47.446;13.900;2023-10-19T13:33:13;1.60;;;1.50;;
9737;SDS011;4908;47.446;13.900;2023-10-19T13:35:41;3.10;;;1.60;;
9737;SDS011;4908;47.446;13.900;2023-10-19T13:38:09;4.20;;;1.60;;
9737;SDS011;4908;47.446;13.900;2023-10-19T13:40:39;2.53;;;1.50;;
9737;SDS011;4908;47.446;13.900;2023-10-19T13:43:07;2.20;;;1.40;;
9737;SDS011;4908;47.446;13.900;2023-10-19T13:45:40;1.40;;;1.40;;
9737;SDS011;4908;47.446;13.900;2023-10-19T13:48:09;1.75;;;1.40;;
9737;SDS011;4908;47.446;13.900;2023-10-19T13:50:40;3.15;;;1.50;;
9737;SDS011;4908;47.446;13.900;2023-10-19T13:53:09;2.95;;;2.00;;
9737;SDS011;4908;47.446;13.900;2023-10-19T13:55:36;3.88;;;1.88;;
9737;SDS011;4908;47.446;13.900;2023-10-19T13:58:03;7.30;;;2.15;;
9737;SDS011;4908;47.446;13.900;2023-10-19T14:00:31;1.42;;;1.42;;
9737;SDS011;4908;47.446;13.900;2023-10-19T14:03:07;1.70;;;1.60;;
9737;SDS011;4908;47.446;13.900;2023-10-19T14:05:35;2.35;;;1.35;;
9737;SDS011;4908;47.446;13.900;2023-10-19T14:08:03;1.92;;;1.85;;
9737;SDS011;4908;47.446;13.900;2023-10-19T14:10:30;2.22;;;1.90;;
9737;SDS011;4908;47.446;13.900;2023-10-19T14:12:57;2.53;;;2.10;;
9737;SDS011;4908;47.446;13.900;2023-10-19T14:15:24;2.72;;;2.47;;
9737;SDS011;4908;47.446;13.900;2023-10-19T14:17:54;3.25;;;1.55;;
9737;SDS011;4908;47.446;13.900;2023-10-19T14:20:25;1.80;;;1.70;;
9737;SDS011;4908;47.446;13.900;2023-10-19T14:22:53;1.95;;;1.52;;
9737;SDS011;4908;47.446;13.900;2023-10-19T14:25:20;3.78;;;1.50;;
9737;SDS011;4908;47.446;13.900;2023-10-19T14:27:49;1.88;;;1.60;;
9737;SDS011;4908;47.446;13.900;2023-10-19T14:30:18;1.63;;;1.52;;
9737;SDS011;4908;47.446;13.900;2023-10-19T14:32:49;2.53;;;2.33;;
9737;SDS011;4908;47.446;13.900;2023-10-19T14:35:17;2.35;;;2.17;;
9737;SDS011;4908;47.446;13.900;2023-10-19T14:37:46;3.08;;;2.45;;
9737;SDS011;4908;47.446;13.900;2023-10-19T14:40:15;2.85;;;2.00;;
9737;SDS011;4908;47.446;13.900;2023-10-19T14:42:45;2.20;;;1.90;;
9737;SDS011;4908;47.446;13.900;2023-10-19T14:45:13;3.55;;;2.10;;
9737;SDS011;4908;47.446;13.900;2023-10-19T14:47:42;4.10;;;2.30;;
9737;SDS011;4908;47.446;13.900;2023-10-19T14:50:13;3.47;;;2.10;;
9737;SDS011;4908;47.446;13.900;2023-10-19T14:52:43;2.22;;;1.98;;
9737;SDS011;4908;47.446;13.900;2023-10-19T14:55:13;1.65;;;1.55;;
9737;SDS011;4908;47.446;13.900;2023-10-19T14:57:41;1.80;;;1.63;;
9737;SDS011;4908;47.446;13.900;2023-10-19T15:00:11;2.28;;;1.70;;
9737;SDS011;4908;47.446;13.900;2023-10-19T15:02:44;7.50;;;6.40;;
9737;SDS011;4908;47.446;13.900;2023-10-19T15:05:12;1.80;;;1.70;;
9737;SDS011;4908;47.446;13.900;2023-10-19T15:07:41;3.97;;;2.70;;
9737;SDS011;4908;47.446;13.900;2023-10-19T15:10:10;3.50;;;3.07;;
9737;SDS011;4908;47.446;13.900;2023-10-19T15:12:38;6.80;;;4.23;;